sensor_id;sensor_type;location;lat;lon;timestamp;pressure;altitude;pressure_sealevel;temperature;humidity
72587;BME280;60621;49.576;11.024;2023-03-26T00:00:16;97724.78;;;8.76;68.70
72587;BME280;60621;49.576;11.024;2023-03-26T00:01:20;97730.75;;;8.73;68.89
72587;BME280;60621;49.576;11.024;2023-03-26T00:02:23;97732.09;;;8.60;68.88
72587;BME280;60621;49.576;11.024;2023-03-26T00:03:25;97727.91;;;8.59;69.24
72587;BME280;60621;49.576;11.024;2023-03-26T00:04:28;97729.78;;;8.58;69.36
72587;BME280;60621;49.576;11.024;2023-03-26T00:05:30;97735.06;;;8.58;69.08
72587;BME280;60621;49.576;11.024;2023-03-26T00:06:34;97735.78;;;8.55;69.83
72587;BME280;60621;49.576;11.024;2023-03-26T00:07:39;97731.88;;;8.72;68.59
72587;BME280;60621;49.576;11.024;2023-03-26T00:08:43;97731.56;;;8.77;68.95
72587;BME280;60621;49.576;11.024;2023-03-26T00:09:45;97727.41;;;8.76;68.05
72587;BME280;60621;49.576;11.024;2023-03-26T00:10:46;97728.97;;;8.81;68.33
72587;BME280;60621;49.576;11.024;2023-03-26T00:11:48;97734.84;;;8.70;68.16
72587;BME280;60621;49.576;11.024;2023-03-26T00:12:50;97741.94;;;8.66;68.42
72587;BME280;60621;49.576;11.024;2023-03-26T00:13:52;97734.44;;;8.68;68.90
72587;BME280;60621;49.576;11.024;2023-03-26T00:14:58;97737.53;;;8.74;68.18
72587;BME280;60621;49.576;11.024;2023-03-26T00:16:00;97736.88;;;8.81;68.50
72587;BME280;60621;49.576;11.024;2023-03-26T00:17:02;97743.78;;;8.92;67.89
72587;BME280;60621;49.576;11.024;2023-03-26T00:18:04;97746.16;;;9.01;67.88
72587;BME280;60621;49.576;11.024;2023-03-26T00:19:06;97743.97;;;9.07;67.52
72587;BME280;60621;49.576;11.024;2023-03-26T00:20:08;97751.09;;;9.06;67.40
72587;BME280;60621;49.576;11.024;2023-03-26T00:21:13;97748.84;;;9.05;67.26
72587;BME280;60621;49.576;11.024;2023-03-26T00:22:14;97752.63;;;9.07;67.12
72587;BME280;60621;49.576;11.024;2023-03-26T00:23:17;97750.78;;;9.11;66.52
72587;BME280;60621;49.576;11.024;2023-03-26T00:24:18;97743.19;;;9.06;66.78
72587;BME280;60621;49.576;11.024;2023-03-26T00:25:21;97741.00;;;9.08;66.77
72587;BME280;60621;49.576;11.024;2023-03-26T00:26:25;97746.59;;;9.07;66.64
72587;BME280;60621;49.576;11.024;2023-03-26T00:27:26;97746.91;;;9.02;67.29
72587;BME280;60621;49.576;11.024;2023-03-26T00:28:29;97750.31;;;9.02;66.76
72587;BME280;60621;49.576;11.024;2023-03-26T00:29:30;97744.25;;;8.98;66.89
72587;BME280;60621;49.576;11.024;2023-03-26T00:30:34;97751.38;;;8.97;67.12
72587;BME280;60621;49.576;11.024;2023-03-26T00:31:42;97752.16;;;8.98;67.21
72587;BME280;60621;49.576;11.024;2023-03-26T00:32:46;97748.06;;;9.04;67.41
72587;BME280;60621;49.576;11.024;2023-03-26T00:33:54;97739.13;;;9.09;67.02
72587;BME280;60621;49.576;11.024;2023-03-26T00:34:57;97748.53;;;9.10;66.88
72587;BME280;60621;49.576;11.024;2023-03-26T00:35:59;97750.00;;;9.07;66.77
72587;BME280;60621;49.576;11.024;2023-03-26T00:37:04;97751.91;;;9.10;66.35
72587;BME280;60621;49.576;11.024;2023-03-26T00:38:06;97752.94;;;9.02;66.42
72587;BME280;60621;49.576;11.024;2023-03-26T00:39:08;97742.44;;;9.06;66.31
72587;BME280;60621;49.576;11.024;2023-03-26T00:40:10;97750.00;;;9.07;66.25
72587;BME280;60621;49.576;11.024;2023-03-26T00:41:14;97742.56;;;9.13;66.15
72587;BME280;60621;49.576;11.024;2023-03-26T00:42:27;97738.34;;;9.08;66.33
72587;BME280;60621;49.576;11.024;2023-03-26T00:43:28;97747.00;;;9.09;66.32
72587;BME280;60621;49.576;11.024;2023-03-26T00:44:33;97742.44;;;9.06;66.42
72587;BME280;60621;49.576;11.024;2023-03-26T00:45:35;97741.69;;;9.05;66.26
72587;BME280;60621;49.576;11.024;2023-03-26T00:46:36;97739.44;;;9.04;66.75
72587;BME280;60621;49.576;11.024;2023-03-26T00:47:38;97745.06;;;9.06;66.39
72587;BME280;60621;49.576;11.024;2023-03-26T00:48:41;97735.31;;;9.06;66.39
72587;BME280;60621;49.576;11.024;2023-03-26T00:49:46;97738.69;;;9.07;66.39
72587;BME280;60621;49.576;11.024;2023-03-26T00:50:49;97730.41;;;9.05;66.68
72587;BME280;60621;49.576;11.024;2023-03-26T00:51:51;97739.47;;;9.07;66.28
72587;BME280;60621;49.576;11.024;2023-03-26T00:52:53;97734.97;;;9.08;65.96
72587;BME280;60621;49.576;11.024;2023-03-26T00:53:56;97738.03;;;9.13;66.25
72587;BME280;60621;49.576;11.024;2023-03-26T00:54:58;97741.47;;;9.17;66.52
72587;BME280;60621;49.576;11.024;2023-03-26T00:55:59;97740.31;;;9.15;66.59
72587;BME280;60621;49.576;11.024;2023-03-26T00:57:01;97739.91;;;9.13;66.34
72587;BME280;60621;49.576;11.024;2023-03-26T00:58:03;97738.75;;;9.10;66.49
72587;BME280;60621;49.576;11.024;2023-03-26T00:59:04;97738.41;;;9.12;66.33
72587;BME280;60621;49.576;11.024;2023-03-26T01:00:09;97736.91;;;9.14;66.18
72587;BME280;60621;49.576;11.024;2023-03-26T01:01:14;97736.84;;;9.07;66.27
72587;BME280;60621;49.576;11.024;2023-03-26T01:02:18;97736.84;;;9.07;66.45
72587;BME280;60621;49.576;11.024;2023-03-26T01:03:21;97733.09;;;9.08;65.98
72587;BME280;60621;49.576;11.024;2023-03-26T01:04:31;97730.78;;;9.03;66.45
72587;BME280;60621;49.576;11.024;2023-03-26T01:05:49;97721.81;;;9.08;66.08
72587;BME280;60621;49.576;11.024;2023-03-26T01:06:54;97724.84;;;9.10;66.58
72587;BME280;60621;49.576;11.024;2023-03-26T01:07:56;97730.91;;;9.14;66.14
72587;BME280;60621;49.576;11.024;2023-03-26T01:09:01;97742.13;;;9.11;66.83
72587;BME280;60621;49.576;11.024;2023-03-26T01:10:04;97734.97;;;9.08;66.23
72587;BME280;60621;49.576;11.024;2023-03-26T01:11:16;97736.13;;;9.10;66.59
72587;BME280;60621;49.576;11.024;2023-03-26T01:12:21;97731.28;;;9.16;66.40
72587;BME280;60621;49.576;11.024;2023-03-26T01:13:23;97724.19;;;9.20;66.24
72587;BME280;60621;49.576;11.024;2023-03-26T01:14:26;97723.09;;;9.21;66.28
72587;BME280;60621;49.576;11.024;2023-03-26T01:15:29;97724.63;;;9.26;66.06
72587;BME280;60621;49.576;11.024;2023-03-26T01:16:44;97721.66;;;9.27;65.95
72587;BME280;60621;49.576;11.024;2023-03-26T01:17:47;97717.84;;;9.21;66.04
72587;BME280;60621;49.576;11.024;2023-03-26T01:18:52;97715.97;;;9.21;66.12
72587;BME280;60621;49.576;11.024;2023-03-26T01:20:33;97716.75;;;9.26;66.34
72587;BME280;60621;49.576;11.024;2023-03-26T01:21:38;97714.78;;;9.19;65.88
72587;BME280;60621;49.576;11.024;2023-03-26T01:22:45;97713.00;;;9.27;66.22
72587;BME280;60621;49.576;11.024;2023-03-26T01:23:58;97713.81;;;9.31;66.00
72587;BME280;60621;49.576;11.024;2023-03-26T01:25:00;97721.72;;;9.31;65.89
72587;BME280;60621;49.576;11.024;2023-03-26T01:27:51;97715.47;;;9.12;66.16
72587;BME280;60621;49.576;11.024;2023-03-26T01:28:56;97713.94;;;9.11;66.61
72587;BME280;60621;49.576;11.024;2023-03-26T01:31:29;97717.56;;;9.00;67.11
72587;BME280;60621;49.576;11.024;2023-03-26T01:36:10;97721.72;;;9.01;67.09
72587;BME280;60621;49.576;11.024;2023-03-26T01:37:27;97711.69;;;9.10;67.35
72587;BME280;60621;49.576;11.024;2023-03-26T01:41:25;97715.38;;;9.05;66.95
72587;BME280;60621;49.576;11.024;2023-03-26T01:42:42;97722.88;;;9.03;67.26
72587;BME280;60621;49.576;11.024;2023-03-26T01:45:02;97710.56;;;9.11;67.29
72587;BME280;60621;49.576;11.024;2023-03-26T01:46:08;97713.16;;;9.07;67.53
72587;BME280;60621;49.576;11.024;2023-03-26T01:47:12;97711.63;;;9.06;67.62
72587;BME280;60621;49.576;11.024;2023-03-26T01:48:14;97708.66;;;9.08;67.09
72587;BME280;60621;49.576;11.024;2023-03-26T01:49:16;97694.78;;;9.11;67.15
72587;BME280;60621;49.576;11.024;2023-03-26T01:50:18;97700.84;;;9.15;66.56
72587;BME280;60621;49.576;11.024;2023-03-26T01:51:31;97699.56;;;9.02;67.42
72587;BME280;60621;49.576;11.024;2023-03-26T01:52:33;97698.09;;;9.04;67.33
72587;BME280;60621;49.576;11.024;2023-03-26T01:53:43;97697.72;;;9.06;67.50
72587;BME280;60621;49.576;11.024;2023-03-26T01:54:45;97700.97;;;8.95;67.72
72587;BME280;60621;49.576;11.024;2023-03-26T01:55:53;97699.09;;;8.96;67.90
72587;BME280;60621;49.576;11.024;2023-03-26T02:01:05;97692.72;;;8.97;67.52
72587;BME280;60621;49.576;11.024;2023-03-26T02:02:17;97686.38;;;8.98;67.63
72587;BME280;60621;49.576;11.024;2023-03-26T02:03:38;97688.97;;;8.94;67.90
72587;BME280;60621;49.576;11.024;2023-03-26T02:05:57;97683.06;;;9.05;67.62
72587;BME280;60621;49.576;11.024;2023-03-26T02:07:06;97681.50;;;9.00;67.52
72587;BME280;60621;49.576;11.024;2023-03-26T02:09:26;97673.28;;;9.05;67.60
72587;BME280;60621;49.576;11.024;2023-03-26T02:10:33;97675.09;;;8.97;67.58
72587;BME280;60621;49.576;11.024;2023-03-26T02:11:36;97679.94;;;8.95;68.11
72587;BME280;60621;49.576;11.024;2023-03-26T02:12:39;97675.44;;;8.96;67.82
72587;BME280;60621;49.576;11.024;2023-03-26T02:13:43;97672.06;;;8.95;67.85
72587;BME280;60621;49.576;11.024;2023-03-26T02:14:45;97664.88;;;8.92;67.99
72587;BME280;60621;49.576;11.024;2023-03-26T02:16:02;97663.28;;;8.84;68.13
72587;BME280;60621;49.576;11.024;2023-03-26T02:17:03;97672.13;;;8.69;68.75
72587;BME280;60621;49.576;11.024;2023-03-26T02:18:05;97666.00;;;8.61;68.99
72587;BME280;60621;49.576;11.024;2023-03-26T02:19:12;97666.50;;;8.70;68.74
72587;BME280;60621;49.576;11.024;2023-03-26T02:20:17;97671.06;;;8.77;69.18
72587;BME280;60621;49.576;11.024;2023-03-26T02:21:23;97658.69;;;8.78;68.60
72587;BME280;60621;49.576;11.024;2023-03-26T02:22:26;97663.44;;;8.68;68.75
72587;BME280;60621;49.576;11.024;2023-03-26T02:23:30;97655.56;;;8.68;68.55
72587;BME280;60621;49.576;11.024;2023-03-26T02:24:37;97662.25;;;8.62;68.93
72587;BME280;60621;49.576;11.024;2023-03-26T02:25:38;97658.19;;;8.68;68.83
72587;BME280;60621;49.576;11.024;2023-03-26T02:26:42;97649.59;;;8.71;69.00
72587;BME280;60621;49.576;11.024;2023-03-26T02:27:46;97656.78;;;8.75;68.53
72587;BME280;60621;49.576;11.024;2023-03-26T02:28:47;97653.47;;;8.81;68.34
72587;BME280;60621;49.576;11.024;2023-03-26T02:29:49;97646.78;;;8.87;68.40
72587;BME280;60621;49.576;11.024;2023-03-26T02:30:51;97661.47;;;8.88;68.13
72587;BME280;60621;49.576;11.024;2023-03-26T02:31:52;97651.53;;;8.78;68.23
72587;BME280;60621;49.576;11.024;2023-03-26T02:32:54;97650.75;;;8.74;68.21
72587;BME280;60621;49.576;11.024;2023-03-26T02:33:59;97646.97;;;8.71;69.03
72587;BME280;60621;49.576;11.024;2023-03-26T02:35:02;97645.47;;;8.70;68.93
72587;BME280;60621;49.576;11.024;2023-03-26T02:36:05;97643.47;;;8.64;68.93
72587;BME280;60621;49.576;11.024;2023-03-26T02:37:09;97657.72;;;8.59;68.85
72587;BME280;60621;49.576;11.024;2023-03-26T02:38:10;97651.66;;;8.55;69.20
72587;BME280;60621;49.576;11.024;2023-03-26T02:39:14;97654.28;;;8.55;69.38
72587;BME280;60621;49.576;11.024;2023-03-26T02:40:17;97651.19;;;8.50;69.24
72587;BME280;60621;49.576;11.024;2023-03-26T02:41:19;97652.72;;;8.51;69.55
72587;BME280;60621;49.576;11.024;2023-03-26T02:42:20;97649.78;;;8.56;69.19
72587;BME280;60621;49.576;11.024;2023-03-26T02:43:22;97648.47;;;8.42;69.55
72587;BME280;60621;49.576;11.024;2023-03-26T02:44:23;97650.28;;;8.38;70.29
72587;BME280;60621;49.576;11.024;2023-03-26T02:45:25;97648.25;;;8.28;70.03
72587;BME280;60621;49.576;11.024;2023-03-26T02:46:27;97648.78;;;8.37;69.90
72587;BME280;60621;49.576;11.024;2023-03-26T02:47:28;97649.97;;;8.43;69.90
72587;BME280;60621;49.576;11.024;2023-03-26T02:48:30;97640.59;;;8.42;69.57
72587;BME280;60621;49.576;11.024;2023-03-26T02:49:31;97644.78;;;8.47;68.93
72587;BME280;60621;49.576;11.024;2023-03-26T02:50:34;97645.84;;;8.42;69.63
72587;BME280;60621;49.576;11.024;2023-03-26T02:51:37;97645.53;;;8.48;69.19
72587;BME280;60621;49.576;11.024;2023-03-26T02:52:38;97646.22;;;8.41;69.47
72587;BME280;60621;49.576;11.024;2023-03-26T02:53:40;97645.78;;;8.39;69.28
72587;BME280;60621;49.576;11.024;2023-03-26T02:54:41;97643.00;;;8.28;69.76
72587;BME280;60621;49.576;11.024;2023-03-26T02:55:43;97645.88;;;8.19;70.11
72587;BME280;60621;49.576;11.024;2023-03-26T02:56:44;97647.38;;;8.20;70.25
72587;BME280;60621;49.576;11.024;2023-03-26T02:57:46;97644.97;;;8.08;70.11
72587;BME280;60621;49.576;11.024;2023-03-26T02:58:47;97650.66;;;8.14;70.31
72587;BME280;60621;49.576;11.024;2023-03-26T02:59:49;97644.44;;;8.26;70.23
72587;BME280;60621;49.576;11.024;2023-03-26T03:00:51;97642.59;;;8.26;69.69
72587;BME280;60621;49.576;11.024;2023-03-26T03:01:55;97642.09;;;8.17;69.81
72587;BME280;60621;49.576;11.024;2023-03-26T03:02:56;97634.78;;;8.07;69.95
72587;BME280;60621;49.576;11.024;2023-03-26T03:03:58;97633.28;;;8.06;70.79
72587;BME280;60621;49.576;11.024;2023-03-26T03:05:01;97632.59;;;8.09;70.70
72587;BME280;60621;49.576;11.024;2023-03-26T03:06:06;97635.81;;;7.99;70.80
72587;BME280;60621;49.576;11.024;2023-03-26T03:07:09;97634.19;;;7.90;71.03
72587;BME280;60621;49.576;11.024;2023-03-26T03:08:14;97628.88;;;7.87;70.85
72587;BME280;60621;49.576;11.024;2023-03-26T03:09:18;97629.63;;;7.87;70.99
72587;BME280;60621;49.576;11.024;2023-03-26T03:10:20;97629.22;;;7.85;71.37
72587;BME280;60621;49.576;11.024;2023-03-26T03:11:22;97627.34;;;7.86;71.46
72587;BME280;60621;49.576;11.024;2023-03-26T03:12:25;97628.53;;;7.88;70.92
72587;BME280;60621;49.576;11.024;2023-03-26T03:13:26;97626.91;;;7.80;70.98
72587;BME280;60621;49.576;11.024;2023-03-26T03:14:29;97623.75;;;7.71;72.03
72587;BME280;60621;49.576;11.024;2023-03-26T03:15:32;97633.84;;;7.69;71.92
72587;BME280;60621;49.576;11.024;2023-03-26T03:16:33;97627.53;;;7.74;71.41
72587;BME280;60621;49.576;11.024;2023-03-26T03:17:35;97627.59;;;7.77;71.50
72587;BME280;60621;49.576;11.024;2023-03-26T03:18:36;97627.72;;;7.84;71.48
72587;BME280;60621;49.576;11.024;2023-03-26T03:19:38;97622.16;;;7.89;71.28
72587;BME280;60621;49.576;11.024;2023-03-26T03:20:39;97628.94;;;7.90;70.87
72587;BME280;60621;49.576;11.024;2023-03-26T03:21:41;97623.38;;;7.95;70.95
72587;BME280;60621;49.576;11.024;2023-03-26T03:22:43;97623.38;;;7.95;70.18
72587;BME280;60621;49.576;11.024;2023-03-26T03:23:44;97625.19;;;7.91;70.77
72587;BME280;60621;49.576;11.024;2023-03-26T03:24:46;97621.28;;;7.82;71.13
72587;BME280;60621;49.576;11.024;2023-03-26T03:25:47;97617.09;;;7.77;71.01
72587;BME280;60621;49.576;11.024;2023-03-26T03:26:51;97617.38;;;7.72;71.13
72587;BME280;60621;49.576;11.024;2023-03-26T03:27:55;97617.69;;;7.67;71.59
72587;BME280;60621;49.576;11.024;2023-03-26T03:28:56;97620.59;;;7.62;71.60
72587;BME280;60621;49.576;11.024;2023-03-26T03:29:58;97613.41;;;7.59;71.77
72587;BME280;60621;49.576;11.024;2023-03-26T03:31:00;97612.44;;;7.67;71.82
72587;BME280;60621;49.576;11.024;2023-03-26T03:32:01;97617.63;;;7.63;71.41
72587;BME280;60621;49.576;11.024;2023-03-26T03:33:03;97609.28;;;7.58;71.56
72587;BME280;60621;49.576;11.024;2023-03-26T03:34:06;97616.81;;;7.59;72.03
72587;BME280;60621;49.576;11.024;2023-03-26T03:35:08;97615.75;;;7.64;71.45
72587;BME280;60621;49.576;11.024;2023-03-26T03:36:09;97608.16;;;7.59;71.65
72587;BME280;60621;49.576;11.024;2023-03-26T03:37:22;97611.91;;;7.58;71.54
72587;BME280;60621;49.576;11.024;2023-03-26T03:38:24;97607.19;;;7.67;71.50
72587;BME280;60621;49.576;11.024;2023-03-26T03:39:26;97607.88;;;7.64;71.63
72587;BME280;60621;49.576;11.024;2023-03-26T03:40:28;97606.31;;;7.59;71.37
72587;BME280;60621;49.576;11.024;2023-03-26T03:41:29;97602.34;;;7.69;70.84
72587;BME280;60621;49.576;11.024;2023-03-26T03:42:31;97602.38;;;7.73;71.07
72587;BME280;60621;49.576;11.024;2023-03-26T03:43:33;97604.56;;;7.67;71.27
72587;BME280;60621;49.576;11.024;2023-03-26T03:44:35;97600.44;;;7.66;70.68
72587;BME280;60621;49.576;11.024;2023-03-26T03:45:36;97599.38;;;7.70;70.71
72587;BME280;60621;49.576;11.024;2023-03-26T03:46:37;97600.13;;;7.71;70.99
72587;BME280;60621;49.576;11.024;2023-03-26T03:47:39;97602.63;;;7.64;70.85
72587;BME280;60621;49.576;11.024;2023-03-26T03:48:41;97595.19;;;7.66;70.88
72587;BME280;60621;49.576;11.024;2023-03-26T03:49:48;97599.53;;;7.58;71.65
72587;BME280;60621;49.576;11.024;2023-03-26T03:50:50;97589.47;;;7.60;70.87
72587;BME280;60621;49.576;11.024;2023-03-26T03:51:51;97593.59;;;7.61;71.03
72587;BME280;60621;49.576;11.024;2023-03-26T03:52:53;97592.91;;;7.64;70.68
72587;BME280;60621;49.576;11.024;2023-03-26T03:53:56;97596.53;;;7.56;70.87
72587;BME280;60621;49.576;11.024;2023-03-26T03:54:57;97597.28;;;7.57;71.39
72587;BME280;60621;49.576;11.024;2023-03-26T03:56:00;97588.72;;;7.60;71.29
72587;BME280;60621;49.576;11.024;2023-03-26T03:57:02;97600.38;;;7.62;70.74
72587;BME280;60621;49.576;11.024;2023-03-26T03:58:04;97597.34;;;7.60;71.18
72587;BME280;60621;49.576;11.024;2023-03-26T03:59:06;97600.59;;;7.54;71.46
72587;BME280;60621;49.576;11.024;2023-03-26T04:00:09;97598.63;;;7.47;71.64
72587;BME280;60621;49.576;11.024;2023-03-26T04:01:12;97598.56;;;7.43;71.78
72587;BME280;60621;49.576;11.024;2023-03-26T04:02:14;97602.28;;;7.42;71.91
72587;BME280;60621;49.576;11.024;2023-03-26T04:03:26;97592.19;;;7.44;71.61
72587;BME280;60621;49.576;11.024;2023-03-26T04:04:34;97593.72;;;7.46;71.51
72587;BME280;60621;49.576;11.024;2023-03-26T04:05:37;97593.00;;;7.49;71.40
72587;BME280;60621;49.576;11.024;2023-03-26T04:06:39;97593.59;;;7.61;71.30
72587;BME280;60621;49.576;11.024;2023-03-26T04:07:41;97582.28;;;7.57;70.98
72587;BME280;60621;49.576;11.024;2023-03-26T04:08:42;97591.22;;;7.53;71.72
72587;BME280;60621;49.576;11.024;2023-03-26T04:09:44;97592.03;;;7.57;71.41
72587;BME280;60621;49.576;11.024;2023-03-26T04:10:45;97597.94;;;7.50;71.66
72587;BME280;60621;49.576;11.024;2023-03-26T04:11:47;97592.69;;;7.50;71.66
72587;BME280;60621;49.576;11.024;2023-03-26T04:12:50;97593.00;;;7.49;71.30
72587;BME280;60621;49.576;11.024;2023-03-26T04:13:52;97594.00;;;7.40;72.12
72587;BME280;60621;49.576;11.024;2023-03-26T04:14:54;97595.09;;;7.39;71.75
72587;BME280;60621;49.576;11.024;2023-03-26T04:15:55;97592.56;;;7.43;71.74
72587;BME280;60621;49.576;11.024;2023-03-26T04:16:57;97598.50;;;7.40;71.89
72587;BME280;60621;49.576;11.024;2023-03-26T04:17:59;97588.50;;;7.46;71.56
72587;BME280;60621;49.576;11.024;2023-03-26T04:19:01;97588.66;;;7.56;71.37
72587;BME280;60621;49.576;11.024;2023-03-26T04:20:04;97589.69;;;7.52;71.07
72587;BME280;60621;49.576;11.024;2023-03-26T04:21:07;97583.47;;;7.60;71.12
72587;BME280;60621;49.576;11.024;2023-03-26T04:22:08;97582.34;;;7.61;70.57
72587;BME280;60621;49.576;11.024;2023-03-26T04:23:12;97581.59;;;7.60;70.54
72587;BME280;60621;49.576;11.024;2023-03-26T04:24:14;97581.28;;;7.65;71.07
72587;BME280;60621;49.576;11.024;2023-03-26T04:25:16;97589.94;;;7.66;70.89
72587;BME280;60621;49.576;11.024;2023-03-26T04:26:17;97586.25;;;7.48;71.49
72587;BME280;60621;49.576;11.024;2023-03-26T04:27:24;97588.81;;;7.44;71.67
72587;BME280;60621;49.576;11.024;2023-03-26T04:28:32;97584.75;;;7.47;71.61
72587;BME280;60621;49.576;11.024;2023-03-26T04:29:38;97583.56;;;7.44;72.00
72587;BME280;60621;49.576;11.024;2023-03-26T04:30:43;97580.03;;;7.33;72.43
72587;BME280;60621;49.576;11.024;2023-03-26T04:31:45;97573.94;;;7.29;72.65
72587;BME280;60621;49.576;11.024;2023-03-26T04:32:47;97577.50;;;7.40;72.10
72587;BME280;60621;49.576;11.024;2023-03-26T04:33:50;97575.38;;;7.46;71.68
72587;BME280;60621;49.576;11.024;2023-03-26T04:34:56;97575.69;;;7.44;72.09
72587;BME280;60621;49.576;11.024;2023-03-26T04:36:04;97573.88;;;7.25;73.01
72587;BME280;60621;49.576;11.024;2023-03-26T04:37:08;97575.38;;;7.26;72.91
72587;BME280;60621;49.576;11.024;2023-03-26T04:38:16;97563.97;;;7.38;72.61
72587;BME280;60621;49.576;11.024;2023-03-26T04:39:19;97564.63;;;7.31;73.42
72587;BME280;60621;49.576;11.024;2023-03-26T04:40:29;97561.22;;;7.31;73.38
72587;BME280;60621;49.576;11.024;2023-03-26T04:41:31;97560.97;;;7.36;72.86
72587;BME280;60621;49.576;11.024;2023-03-26T04:42:32;97563.63;;;7.39;73.21
72587;BME280;60621;49.576;11.024;2023-03-26T04:43:34;97553.72;;;7.52;72.83
72587;BME280;60621;49.576;11.024;2023-03-26T04:44:35;97557.44;;;7.51;72.56
72587;BME280;60621;49.576;11.024;2023-03-26T04:45:37;97552.13;;;7.48;72.40
72587;BME280;60621;49.576;11.024;2023-03-26T04:46:39;97555.53;;;7.48;73.35
72587;BME280;60621;49.576;11.024;2023-03-26T04:47:43;97552.53;;;7.50;73.06
72587;BME280;60621;49.576;11.024;2023-03-26T04:48:50;97551.09;;;7.52;72.68
72587;BME280;60621;49.576;11.024;2023-03-26T04:49:52;97561.28;;;7.57;73.04
72587;BME280;60621;49.576;11.024;2023-03-26T04:50:53;97550.03;;;7.57;72.81
72587;BME280;60621;49.576;11.024;2023-03-26T04:51:55;97549.44;;;7.67;72.63
72587;BME280;60621;49.576;11.024;2023-03-26T04:52:56;97549.22;;;7.53;72.61
72587;BME280;60621;49.576;11.024;2023-03-26T04:53:59;97548.41;;;7.49;72.87
72587;BME280;60621;49.576;11.024;2023-03-26T04:55:05;97547.25;;;7.46;73.50
72587;BME280;60621;49.576;11.024;2023-03-26T04:57:31;97542.00;;;7.46;73.36
72587;BME280;60621;49.576;11.024;2023-03-26T04:58:34;97540.44;;;7.41;73.95
72587;BME280;60621;49.576;11.024;2023-03-26T04:59:36;97541.81;;;7.35;74.20
72587;BME280;60621;49.576;11.024;2023-03-26T05:00:37;97533.94;;;7.35;74.23
72587;BME280;60621;49.576;11.024;2023-03-26T05:01:40;97536.94;;;7.34;73.94
72587;BME280;60621;49.576;11.024;2023-03-26T05:02:42;97538.91;;;7.40;73.95
72587;BME280;60621;49.576;11.024;2023-03-26T05:03:44;97537.69;;;7.34;74.06
72587;BME280;60621;49.576;11.024;2023-03-26T05:04:46;97536.88;;;7.30;74.30
72587;BME280;60621;49.576;11.024;2023-03-26T05:05:48;97534.53;;;7.25;74.50
72587;BME280;60621;49.576;11.024;2023-03-26T05:06:50;97533.72;;;7.21;75.17
72587;BME280;60621;49.576;11.024;2023-03-26T05:07:51;97537.63;;;7.31;74.78
72587;BME280;60621;49.576;11.024;2023-03-26T05:08:54;97536.94;;;7.34;73.95
72587;BME280;60621;49.576;11.024;2023-03-26T05:09:55;97533.31;;;7.42;74.69
72587;BME280;60621;49.576;11.024;2023-03-26T05:10:57;97534.47;;;7.44;74.17
72587;BME280;60621;49.576;11.024;2023-03-26T05:11:59;97527.78;;;7.47;74.00
72587;BME280;60621;49.576;11.024;2023-03-26T05:13:00;97525.44;;;7.42;74.11
72587;BME280;60621;49.576;11.024;2023-03-26T05:14:02;97526.94;;;7.43;74.16
72587;BME280;60621;49.576;11.024;2023-03-26T05:15:04;97522.00;;;7.38;74.64
72587;BME280;60621;49.576;11.024;2023-03-26T05:16:06;97522.09;;;7.45;74.12
72587;BME280;60621;49.576;11.024;2023-03-26T05:17:09;97510.50;;;7.46;74.40
72587;BME280;60621;49.576;11.024;2023-03-26T05:18:15;97513.59;;;7.52;74.26
72587;BME280;60621;49.576;11.024;2023-03-26T05:19:16;97512.84;;;7.51;73.72
72587;BME280;60621;49.576;11.024;2023-03-26T05:20:25;97514.72;;;7.51;73.82
72587;BME280;60621;49.576;11.024;2023-03-26T05:21:27;97516.47;;;7.43;74.07
72587;BME280;60621;49.576;11.024;2023-03-26T05:22:29;97508.13;;;7.37;74.48
72587;BME280;60621;49.576;11.024;2023-03-26T05:23:30;97511.59;;;7.45;74.51
72587;BME280;60621;49.576;11.024;2023-03-26T05:24:32;97508.28;;;7.48;74.15
72587;BME280;60621;49.576;11.024;2023-03-26T05:25:33;97506.09;;;7.50;73.96
72587;BME280;60621;49.576;11.024;2023-03-26T05:26:35;97504.25;;;7.54;74.50
72587;BME280;60621;49.576;11.024;2023-03-26T05:27:37;97498.69;;;7.59;73.71
72587;BME280;60621;49.576;11.024;2023-03-26T05:28:39;97497.59;;;7.60;73.83
72587;BME280;60621;49.576;11.024;2023-03-26T05:29:41;97496.84;;;7.60;73.59
72587;BME280;60621;49.576;11.024;2023-03-26T05:30:43;97499.81;;;7.58;73.73
72587;BME280;60621;49.576;11.024;2023-03-26T05:31:45;97496.03;;;7.56;73.68
72587;BME280;60621;49.576;11.024;2023-03-26T05:32:48;97503.50;;;7.54;73.82
72587;BME280;60621;49.576;11.024;2023-03-26T05:34:53;97501.03;;;7.64;73.43
72587;BME280;60621;49.576;11.024;2023-03-26T05:36:06;97490.94;;;7.66;73.78
72587;BME280;60621;49.576;11.024;2023-03-26T05:37:09;97490.22;;;7.69;73.13
72587;BME280;60621;49.576;11.024;2023-03-26T05:38:11;97484.13;;;7.62;73.34
72587;BME280;60621;49.576;11.024;2023-03-26T05:39:12;97483.59;;;7.53;74.07
72587;BME280;60621;49.576;11.024;2023-03-26T05:40:14;97483.53;;;7.49;74.16
72587;BME280;60621;49.576;11.024;2023-03-26T05:41:17;97486.78;;;7.39;74.51
72587;BME280;60621;49.576;11.024;2023-03-26T05:42:19;97480.41;;;7.40;74.86
72587;BME280;60621;49.576;11.024;2023-03-26T05:43:21;97478.59;;;7.44;74.15
72587;BME280;60621;49.576;11.024;2023-03-26T05:44:22;97477.16;;;7.47;74.14
72587;BME280;60621;49.576;11.024;2023-03-26T05:45:24;97470.41;;;7.46;74.22
72587;BME280;60621;49.576;11.024;2023-03-26T05:46:25;97469.59;;;7.41;74.42
72587;BME280;60621;49.576;11.024;2023-03-26T05:47:29;97478.06;;;7.31;75.06
72587;BME280;60621;49.576;11.024;2023-03-26T05:48:31;97471.41;;;7.37;74.56
72587;BME280;60621;49.576;11.024;2023-03-26T05:49:32;97470.22;;;7.35;75.05
72587;BME280;60621;49.576;11.024;2023-03-26T05:50:34;97461.19;;;7.32;74.96
72587;BME280;60621;49.576;11.024;2023-03-26T05:51:36;97461.66;;;7.38;74.69
72587;BME280;60621;49.576;11.024;2023-03-26T05:52:37;97464.66;;;7.40;74.74
72587;BME280;60621;49.576;11.024;2023-03-26T05:53:39;97462.81;;;7.40;74.39
72587;BME280;60621;49.576;11.024;2023-03-26T05:54:41;97459.34;;;7.33;74.86
72587;BME280;60621;49.576;11.024;2023-03-26T05:55:46;97456.47;;;7.41;74.82